createdAt,value
2018-03-19T00:00:54.687Z,5.60
2018-03-19T00:03:22.142Z,5.60
2018-03-19T00:05:49.624Z,5.27
2018-03-19T00:08:17.094Z,5.50
2018-03-19T00:10:44.634Z,5.37
2018-03-19T00:13:12.089Z,5.40
2018-03-19T00:15:39.571Z,5.37
2018-03-19T00:18:07.039Z,5.83
2018-03-19T00:20:34.507Z,5.07
2018-03-19T00:23:02.000Z,5.50
2018-03-19T00:25:29.480Z,5.53
2018-03-19T00:27:56.976Z,5.67
2018-03-19T00:30:24.442Z,5.40
2018-03-19T00:32:51.926Z,5.77
2018-03-19T00:35:19.384Z,5.83
2018-03-19T00:37:46.871Z,5.27
2018-03-19T00:40:14.328Z,5.50
2018-03-19T00:42:41.807Z,5.63
2018-03-19T00:45:09.336Z,5.77
2018-03-19T00:47:36.822Z,5.80
2018-03-19T00:50:04.274Z,5.57
2018-03-19T00:52:31.732Z,5.53
2018-03-19T00:54:59.242Z,6.23
2018-03-19T00:57:26.712Z,5.83
2018-03-19T00:59:54.199Z,5.70
2018-03-19T01:02:21.660Z,6.00
2018-03-19T01:04:49.138Z,6.00
2018-03-19T01:07:16.595Z,6.20
2018-03-19T01:09:44.102Z,5.80
2018-03-19T01:12:11.569Z,5.37
2018-03-19T01:14:39.043Z,5.73
2018-03-19T01:17:06.527Z,6.47
2018-03-19T01:19:34.015Z,5.83
2018-03-19T01:22:01.468Z,5.57
2018-03-19T01:24:28.955Z,6.07
2018-03-19T01:26:56.411Z,6.27
2018-03-19T01:29:23.904Z,5.53
2018-03-19T01:31:51.363Z,5.97
2018-03-19T01:34:18.814Z,5.80
2018-03-19T01:36:46.290Z,5.47
2018-03-19T01:39:13.764Z,5.87
2018-03-19T01:41:41.256Z,5.67
2018-03-19T01:44:08.706Z,6.00
2018-03-19T01:46:36.211Z,6.27
2018-03-19T01:49:03.659Z,5.40
2018-03-19T01:51:31.138Z,5.97
2018-03-19T01:53:58.600Z,5.70
2018-03-19T01:56:26.091Z,5.27
2018-03-19T01:58:53.553Z,5.90
2018-03-19T02:01:21.041Z,5.63
2018-03-19T02:03:48.495Z,5.97
2018-03-19T02:06:15.983Z,5.50
2018-03-19T02:08:43.452Z,6.10
2018-03-19T02:11:10.925Z,5.70
2018-03-19T02:13:38.371Z,5.83
2018-03-19T02:16:05.864Z,6.20
2018-03-19T02:18:33.339Z,6.47
2018-03-19T02:21:00.832Z,5.83
2018-03-19T02:23:28.294Z,6.03
2018-03-19T02:25:55.755Z,6.50
2018-03-19T02:28:23.235Z,5.90
2018-03-19T02:30:50.691Z,5.90
2018-03-19T02:33:18.168Z,6.10
2018-03-19T02:35:45.631Z,6.03
2018-03-19T02:38:13.129Z,5.90
2018-03-19T02:40:40.589Z,6.30
2018-03-19T02:43:08.067Z,5.87
2018-03-19T02:45:35.532Z,6.20
2018-03-19T02:48:03.035Z,6.00
2018-03-19T02:50:30.505Z,6.30
2018-03-19T02:52:57.988Z,5.70
2018-03-19T02:55:25.443Z,6.30
2018-03-19T02:57:52.924Z,5.90
2018-03-19T03:00:20.400Z,6.20
2018-03-19T03:02:47.915Z,6.37
2018-03-19T03:05:15.372Z,6.10
2018-03-19T03:07:42.844Z,6.30
2018-03-19T03:10:10.331Z,6.40
2018-03-19T03:12:37.787Z,5.40
2018-03-19T03:15:05.274Z,6.10
2018-03-19T03:17:32.732Z,6.40
2018-03-19T03:20:13.579Z,6.00
2018-03-19T03:22:41.026Z,5.80
2018-03-19T03:25:08.560Z,6.30
2018-03-19T03:27:35.982Z,7.03
2018-03-19T03:30:03.462Z,5.83
2018-03-19T03:32:30.920Z,6.17
2018-03-19T03:34:58.408Z,6.60
2018-03-19T03:37:25.866Z,5.57
2018-03-19T03:39:53.352Z,5.97
2018-03-19T03:42:20.855Z,5.97
2018-03-19T03:44:48.351Z,5.73
2018-03-19T03:47:15.808Z,6.10
2018-03-19T03:49:43.271Z,6.70
2018-03-19T03:52:10.754Z,6.73
2018-03-19T03:54:38.208Z,5.73
2018-03-19T03:57:05.716Z,6.63
2018-03-19T03:59:33.172Z,6.10
2018-03-19T04:02:00.665Z,6.70
2018-03-19T04:04:28.131Z,6.47
2018-03-19T04:06:55.608Z,5.97
2018-03-19T04:09:23.072Z,6.60
2018-03-19T04:11:50.554Z,6.47
2018-03-19T04:14:18.006Z,6.23
2018-03-19T04:16:45.512Z,6.47
2018-03-19T04:19:12.967Z,6.03
2018-03-19T04:21:40.454Z,6.07
2018-03-19T04:24:07.911Z,5.93
2018-03-19T04:26:35.392Z,6.47
2018-03-19T04:29:02.855Z,6.10
2018-03-19T04:31:30.364Z,6.60
2018-03-19T04:33:57.830Z,6.70
2018-03-19T04:36:25.342Z,6.20
2018-03-19T04:38:52.799Z,6.73
2018-03-19T04:41:20.264Z,6.47
2018-03-19T04:43:47.753Z,6.23
2018-03-19T04:46:15.214Z,6.83
2018-03-19T04:48:42.717Z,6.60
2018-03-19T04:51:10.182Z,5.90
2018-03-19T04:53:37.675Z,6.80
2018-03-19T04:56:05.133Z,6.50
2018-03-19T04:58:32.624Z,6.60
2018-03-19T05:01:00.096Z,6.47
2018-03-19T05:03:27.612Z,6.67
2018-03-19T05:05:55.067Z,6.23
2018-03-19T05:08:22.575Z,6.87
2018-03-19T05:10:50.037Z,6.80
2018-03-19T05:13:17.517Z,6.40
2018-03-19T05:15:44.971Z,6.37
2018-03-19T05:18:12.460Z,6.37
2018-03-19T05:20:39.939Z,6.80
2018-03-19T05:23:07.432Z,6.17
2018-03-19T05:25:34.891Z,7.33
2018-03-19T05:28:02.414Z,6.23
2018-03-19T05:30:29.869Z,6.47
2018-03-19T05:32:57.330Z,7.07
2018-03-19T05:35:24.816Z,7.07
2018-03-19T05:37:52.273Z,6.50
2018-03-19T05:40:19.763Z,6.33
2018-03-19T05:42:47.228Z,6.60
2018-03-19T05:45:14.726Z,6.33
2018-03-19T05:47:42.188Z,6.87
2018-03-19T05:50:09.671Z,6.77
2018-03-19T05:52:37.133Z,6.80
2018-03-19T05:55:04.628Z,7.23
2018-03-19T05:57:32.089Z,6.33
2018-03-19T05:59:59.586Z,6.87
2018-03-19T06:02:27.063Z,7.57
2018-03-19T06:04:54.548Z,6.67
2018-03-19T06:07:22.007Z,7.20
2018-03-19T06:09:49.491Z,6.60
2018-03-19T06:12:16.950Z,6.70
2018-03-19T06:14:44.439Z,6.63
2018-03-19T06:17:11.904Z,7.13
2018-03-19T06:19:39.392Z,6.60
2018-03-19T06:22:06.852Z,6.93
2018-03-19T06:24:34.343Z,6.67
2018-03-19T06:27:01.808Z,6.57
2018-03-19T06:29:29.260Z,6.93
2018-03-19T06:31:56.764Z,6.87
2018-03-19T06:34:24.231Z,6.70
2018-03-19T06:36:51.731Z,6.90
2018-03-19T06:39:19.191Z,7.50
2018-03-19T06:41:46.676Z,7.00
2018-03-19T06:44:14.135Z,7.30
2018-03-19T06:46:41.619Z,7.30
2018-03-19T06:49:09.181Z,7.53
2018-03-19T06:51:36.737Z,7.07
2018-03-19T06:54:04.195Z,6.67
2018-03-19T06:56:31.695Z,6.60
2018-03-19T06:58:59.158Z,7.30
2018-03-19T07:01:26.660Z,7.27
2018-03-19T07:03:54.139Z,7.73
2018-03-19T07:06:21.645Z,7.47
2018-03-19T07:08:49.108Z,6.60
2018-03-19T07:11:16.568Z,7.27
2018-03-19T07:13:44.054Z,6.90
2018-03-19T07:16:12.281Z,7.70
2018-03-19T07:18:39.764Z,8.37
2018-03-19T07:21:07.227Z,6.70
2018-03-19T07:23:34.719Z,7.80
2018-03-19T07:26:02.196Z,7.53
2018-03-19T07:28:29.691Z,6.37
2018-03-19T07:30:57.151Z,7.57
2018-03-19T07:33:24.650Z,7.87
2018-03-19T07:35:52.120Z,6.70
2018-03-19T07:38:19.585Z,7.80
2018-03-19T07:40:47.072Z,7.50
2018-03-19T07:43:14.531Z,7.20
2018-03-19T07:45:42.022Z,7.73
2018-03-19T07:48:09.487Z,7.63
2018-03-19T07:50:36.984Z,7.57
2018-03-19T07:53:04.451Z,7.30
2018-03-19T07:55:31.974Z,7.60
2018-03-19T07:57:59.436Z,7.50
2018-03-19T08:00:26.919Z,8.03
2018-03-19T08:02:54.380Z,6.90
2018-03-19T08:05:21.973Z,7.30
2018-03-19T08:07:49.360Z,7.60
2018-03-19T08:10:16.847Z,6.40
2018-03-19T08:12:44.324Z,7.23
2018-03-19T08:15:11.808Z,7.60
2018-03-19T08:17:39.258Z,7.23
2018-03-19T08:20:06.743Z,7.60
2018-03-19T08:22:34.202Z,7.10
2018-03-19T08:25:01.655Z,7.67
2018-03-19T08:27:29.158Z,7.17
2018-03-19T08:29:56.615Z,7.40
2018-03-19T08:32:24.099Z,7.70
2018-03-19T08:34:51.556Z,7.37
2018-03-19T08:37:19.042Z,7.83
2018-03-19T08:39:46.545Z,7.67
2018-03-19T08:42:13.987Z,7.00
2018-03-19T08:44:41.455Z,7.77
2018-03-19T08:47:08.931Z,7.80
2018-03-19T08:49:36.394Z,7.63
2018-03-19T08:52:03.876Z,7.53
2018-03-19T08:54:31.335Z,8.23
2018-03-19T08:56:58.811Z,8.07
2018-03-19T08:59:26.293Z,7.77
2018-03-19T09:01:53.815Z,7.87
2018-03-19T09:04:21.315Z,7.73
2018-03-19T09:06:48.791Z,8.20
2018-03-19T09:09:16.277Z,9.60
2018-03-19T09:11:43.743Z,8.40
2018-03-19T09:14:11.224Z,8.07
2018-03-19T09:16:38.674Z,8.07
2018-03-19T09:19:06.165Z,8.20
2018-03-19T09:21:33.623Z,8.57
2018-03-19T09:24:01.183Z,7.33
2018-03-19T09:26:28.709Z,8.40
2018-03-19T09:28:56.191Z,8.13
2018-03-19T09:31:23.647Z,8.23
2018-03-19T09:33:51.128Z,7.83
2018-03-19T09:36:18.587Z,8.30
2018-03-19T09:38:46.091Z,8.70
2018-03-19T09:41:13.864Z,8.00
2018-03-19T09:43:41.352Z,7.80
2018-03-19T09:46:08.852Z,8.43
2018-03-19T09:48:40.221Z,8.70
2018-03-19T09:51:17.987Z,8.77
2018-03-19T09:56:21.645Z,8.10
2018-03-19T09:58:49.099Z,8.63
2018-03-19T10:01:16.599Z,8.77
2018-03-19T10:03:44.068Z,8.70
2018-03-19T10:06:11.555Z,7.93
2018-03-19T10:08:39.007Z,7.30
2018-03-19T10:11:06.504Z,7.73
2018-03-19T10:13:33.959Z,8.40
2018-03-19T10:16:01.448Z,8.47
2018-03-19T10:18:28.907Z,8.47
2018-03-19T10:20:56.363Z,8.57
2018-03-19T10:23:23.855Z,8.13
2018-03-19T10:25:51.323Z,7.80
2018-03-19T10:28:18.807Z,8.73
2018-03-19T10:30:46.262Z,8.27
2018-03-19T10:33:13.752Z,8.57
2018-03-19T10:35:41.212Z,7.93
2018-03-19T10:38:08.705Z,8.60
2018-03-19T10:40:36.159Z,7.40
2018-03-19T10:43:03.674Z,8.23
2018-03-19T10:45:31.128Z,8.07
2018-03-19T10:47:58.620Z,8.33
2018-03-19T10:50:26.076Z,8.43
2018-03-19T10:52:53.565Z,7.90
2018-03-19T10:55:21.038Z,8.43
2018-03-19T10:57:48.524Z,8.57
2018-03-19T11:00:15.978Z,8.40
2018-03-19T11:02:49.008Z,8.20
2018-03-19T11:05:22.005Z,8.60
2018-03-19T11:07:55.082Z,8.67
2018-03-19T11:10:22.563Z,8.80
2018-03-19T11:12:50.056Z,8.33
2018-03-19T11:15:17.510Z,9.10
2018-03-19T11:17:45.000Z,8.30
2018-03-19T11:20:12.486Z,9.00
2018-03-19T11:22:39.970Z,8.33
2018-03-19T11:25:07.419Z,8.53
2018-03-19T11:27:34.908Z,8.67
2018-03-19T11:30:02.368Z,8.17
2018-03-19T11:32:29.864Z,8.67
2018-03-19T11:34:57.347Z,8.47
2018-03-19T11:37:24.833Z,9.43
2018-03-19T11:39:52.311Z,8.87
2018-03-19T11:42:19.770Z,8.47
2018-03-19T11:44:47.256Z,8.67
2018-03-19T11:47:15.688Z,8.50
2018-03-19T11:49:43.182Z,8.27
2018-03-19T11:52:10.644Z,8.73
2018-03-19T11:54:38.123Z,8.47
2018-03-19T11:57:05.579Z,8.67
2018-03-19T11:59:33.072Z,7.90
2018-03-19T12:02:00.536Z,7.83
2018-03-19T12:04:28.019Z,8.17
2018-03-19T12:06:55.472Z,8.40
2018-03-19T12:09:22.996Z,8.20
2018-03-19T12:11:50.459Z,8.73
2018-03-19T12:14:17.919Z,8.17
2018-03-19T12:16:45.418Z,8.17
2018-03-19T12:19:12.874Z,7.97
2018-03-19T12:21:40.351Z,8.97
2018-03-19T12:24:08.163Z,8.97
2018-03-19T12:26:35.644Z,7.97
2018-03-19T12:29:03.099Z,9.13
2018-03-19T12:31:30.594Z,8.50
2018-03-19T12:33:58.047Z,7.80
2018-03-19T12:36:25.587Z,8.30
2018-03-19T12:38:52.995Z,8.27
2018-03-19T12:41:20.477Z,8.43
2018-03-19T12:43:47.927Z,8.20
2018-03-19T12:46:15.403Z,7.93
2018-03-19T12:48:42.873Z,8.03
2018-03-19T12:51:10.393Z,8.63
2018-03-19T12:53:37.853Z,7.70
2018-03-19T12:56:05.350Z,8.43
2018-03-19T12:58:32.812Z,8.37
2018-03-19T13:01:00.304Z,8.07
2018-03-19T13:03:27.766Z,8.43
2018-03-19T13:05:55.224Z,8.03
2018-03-19T13:08:22.702Z,7.50
2018-03-19T13:10:50.180Z,8.00
2018-03-19T13:13:17.660Z,7.67
2018-03-19T13:15:45.120Z,8.17
2018-03-19T13:18:12.623Z,7.10
2018-03-19T13:20:40.095Z,7.60
2018-03-19T13:23:07.576Z,7.90
2018-03-19T13:25:35.035Z,7.53
2018-03-19T13:28:02.525Z,8.10
2018-03-19T13:30:29.984Z,7.60
2018-03-19T13:32:57.476Z,8.20
2018-03-19T13:35:24.943Z,8.47
2018-03-19T13:37:52.427Z,7.83
2018-03-19T13:40:19.887Z,7.57
2018-03-19T13:42:47.375Z,8.37
2018-03-19T13:45:14.868Z,7.77
2018-03-19T13:47:42.380Z,7.83
2018-03-19T13:50:09.840Z,8.03
2018-03-19T13:52:37.325Z,7.97
2018-03-19T13:55:04.803Z,8.03
2018-03-19T13:57:32.269Z,8.37
2018-03-19T13:59:59.762Z,7.63
2018-03-19T14:02:27.231Z,8.60
2018-03-19T14:04:54.739Z,8.17
2018-03-19T14:07:22.198Z,8.57
2018-03-19T14:09:49.674Z,8.23
2018-03-19T14:12:17.147Z,8.60
2018-03-19T14:14:44.642Z,7.93
2018-03-19T14:17:12.108Z,7.70
2018-03-19T14:19:39.606Z,7.87
2018-03-19T14:22:07.062Z,8.80
2018-03-19T14:24:34.543Z,7.43
2018-03-19T14:27:01.999Z,7.47
2018-03-19T14:29:29.479Z,8.60
2018-03-19T14:31:57.183Z,8.03
2018-03-19T14:34:24.760Z,8.17
2018-03-19T14:36:52.223Z,7.87
2018-03-19T14:39:19.676Z,7.27
2018-03-19T14:41:47.175Z,7.10
2018-03-19T14:44:14.650Z,7.90
2018-03-19T14:46:42.133Z,6.70
2018-03-19T14:49:09.594Z,7.60
2018-03-19T14:51:37.076Z,7.10
2018-03-19T14:54:04.547Z,7.10
2018-03-19T14:56:32.031Z,6.73
2018-03-19T14:58:59.508Z,7.33
2018-03-19T15:01:26.995Z,7.30
2018-03-19T15:03:54.451Z,7.40
2018-03-19T15:06:21.932Z,6.60
2018-03-19T15:08:49.391Z,7.00
2018-03-19T15:11:16.895Z,6.53
2018-03-19T15:13:44.360Z,7.00
2018-03-19T15:16:11.815Z,7.20
2018-03-19T15:18:39.331Z,6.70
2018-03-19T15:21:06.789Z,6.77
2018-03-19T15:23:34.276Z,6.77
2018-03-19T15:26:01.735Z,7.17
2018-03-19T15:28:29.227Z,6.90
2018-03-19T15:30:56.686Z,8.53
2018-03-19T15:33:24.179Z,8.23
2018-03-19T15:35:51.636Z,8.70
2018-03-19T15:38:19.124Z,9.33
2018-03-19T15:40:46.599Z,9.20
2018-03-19T15:43:14.080Z,9.13
2018-03-19T15:45:41.567Z,8.50
2018-03-19T15:48:09.051Z,8.00
2018-03-19T15:50:36.611Z,8.17
2018-03-19T15:53:04.100Z,7.63
2018-03-19T15:55:31.546Z,8.50
2018-03-19T15:57:58.997Z,7.60
2018-03-19T16:00:26.488Z,8.30
2018-03-19T16:02:53.938Z,7.40
2018-03-19T16:05:21.421Z,7.43
2018-03-19T16:07:48.907Z,7.20
2018-03-19T16:10:16.375Z,7.20
2018-03-19T16:12:43.827Z,7.40
2018-03-19T16:15:11.348Z,7.87
2018-03-19T16:17:38.799Z,10.80
2018-03-19T16:20:06.294Z,7.53
2018-03-19T16:22:33.779Z,7.30
2018-03-19T16:25:01.252Z,6.60
2018-03-19T16:27:28.705Z,7.73
2018-03-19T16:29:56.187Z,7.23
2018-03-19T16:32:23.636Z,6.80
2018-03-19T16:34:51.121Z,7.47
2018-03-19T16:37:18.582Z,6.87
2018-03-19T16:39:46.067Z,7.17
2018-03-19T16:42:13.547Z,8.37
2018-03-19T16:44:41.008Z,7.30
2018-03-19T16:47:08.488Z,7.10
2018-03-19T16:49:35.946Z,7.23
2018-03-19T16:52:03.447Z,7.40
2018-03-19T16:54:30.898Z,7.03
2018-03-19T16:56:58.389Z,7.23
2018-03-19T16:59:25.856Z,6.90
2018-03-19T17:01:53.344Z,8.27
2018-03-19T17:04:20.809Z,7.73
2018-03-19T17:06:48.314Z,13.00
2018-03-19T17:09:15.773Z,6.50
2018-03-19T17:11:43.292Z,6.63
2018-03-19T17:14:10.787Z,5.93
2018-03-19T17:16:38.244Z,6.60
2018-03-19T17:19:05.727Z,6.50
2018-03-19T17:21:33.179Z,6.77
2018-03-19T17:24:00.668Z,6.70
2018-03-19T17:26:28.123Z,6.57
2018-03-19T17:28:55.596Z,6.33
2018-03-19T17:31:23.049Z,6.57
2018-03-19T17:33:50.540Z,6.27
2018-03-19T17:36:18.029Z,5.80
2018-03-19T17:38:45.517Z,5.23
2018-03-19T17:41:12.989Z,5.37
2018-03-19T17:43:40.475Z,5.60
2018-03-19T17:46:07.940Z,5.43
2018-03-19T17:48:35.436Z,5.27
2018-03-19T17:51:03.406Z,5.43
2018-03-19T17:53:30.911Z,5.77
2018-03-19T17:55:58.366Z,6.50
2018-03-19T17:58:25.823Z,5.70
2018-03-19T18:00:53.320Z,5.27
2018-03-19T18:03:20.795Z,6.03
2018-03-19T18:05:48.311Z,6.20
2018-03-19T18:08:15.782Z,5.97
2018-03-19T18:10:43.591Z,5.27
2018-03-19T18:13:11.179Z,5.80
2018-03-19T18:15:38.821Z,5.57
2018-03-19T18:18:06.367Z,5.60
2018-03-19T18:20:33.917Z,5.73
2018-03-19T18:23:01.422Z,5.93
2018-03-19T18:25:28.966Z,6.57
2018-03-19T18:27:56.459Z,6.17
2018-03-19T18:30:23.988Z,5.73
2018-03-19T18:32:51.518Z,5.80
2018-03-19T18:35:19.030Z,6.27
2018-03-19T18:37:46.508Z,6.40
2018-03-19T18:40:13.977Z,13.20
2018-03-19T18:42:41.456Z,6.50
2018-03-19T18:45:08.911Z,6.53
2018-03-19T18:47:36.395Z,6.70
2018-03-19T18:50:03.860Z,7.13
2018-03-19T18:52:31.369Z,7.00
2018-03-19T18:54:58.828Z,6.20
2018-03-19T18:57:26.318Z,7.07
2018-03-19T18:59:53.788Z,6.30
2018-03-19T19:02:21.287Z,6.70
2018-03-19T19:04:48.734Z,6.90
2018-03-19T19:07:16.207Z,6.50
2018-03-19T19:09:43.701Z,6.90
2018-03-19T19:12:11.155Z,6.83
2018-03-19T19:14:38.631Z,6.70
2018-03-19T19:17:06.088Z,6.93
2018-03-19T19:19:33.575Z,6.70
2018-03-19T19:22:01.038Z,6.47
2018-03-19T19:24:28.528Z,6.40
2018-03-19T19:26:56.036Z,6.47
2018-03-19T19:29:23.614Z,6.23
2018-03-19T19:31:51.011Z,6.90
2018-03-19T19:34:18.510Z,6.97
2018-03-19T19:36:45.960Z,6.83
2018-03-19T19:39:13.431Z,6.70
2018-03-19T19:41:40.922Z,6.70
2018-03-19T19:44:08.379Z,6.60
2018-03-19T19:46:35.864Z,6.93
2018-03-19T19:49:03.335Z,6.67
2018-03-19T19:51:30.828Z,6.47
2018-03-19T19:53:58.287Z,6.53
2018-03-19T19:56:25.775Z,6.97
2018-03-19T19:58:53.248Z,6.33
2018-03-19T20:01:20.748Z,6.33
2018-03-19T20:03:48.195Z,9.17
2018-03-19T20:06:15.719Z,9.37
2018-03-19T20:08:43.191Z,14.73
2018-03-19T20:11:10.684Z,12.20
2018-03-19T20:13:38.151Z,12.17
2018-03-19T20:16:05.667Z,7.60
2018-03-19T20:18:33.159Z,10.43
2018-03-19T20:21:00.655Z,7.67
2018-03-19T20:23:28.109Z,7.50
2018-03-19T20:25:55.617Z,6.10
2018-03-19T20:28:23.075Z,8.43
2018-03-19T20:30:50.564Z,6.60
2018-03-19T20:33:18.042Z,9.77
2018-03-19T20:35:45.504Z,7.03
2018-03-19T20:38:13.010Z,7.47
2018-03-19T20:40:40.472Z,6.93
2018-03-19T20:43:07.957Z,7.30
2018-03-19T20:45:35.416Z,7.63
2018-03-19T20:48:02.904Z,6.80
2018-03-19T20:50:30.365Z,6.87
2018-03-19T20:52:57.962Z,6.90
2018-03-19T20:55:26.315Z,6.37
2018-03-19T20:57:53.801Z,6.80
2018-03-19T21:00:21.258Z,6.77
2018-03-19T21:02:48.847Z,7.10
2018-03-19T21:05:16.315Z,6.23
2018-03-19T21:07:43.808Z,6.33
2018-03-19T21:10:11.264Z,6.17
2018-03-19T21:12:38.777Z,7.47
2018-03-19T21:15:06.265Z,6.13
2018-03-19T21:17:33.967Z,6.47
2018-03-19T21:20:01.477Z,6.60
2018-03-19T21:22:28.943Z,6.83
2018-03-19T21:24:56.432Z,5.87
2018-03-19T21:27:23.902Z,7.17
2018-03-19T21:29:51.402Z,6.10
2018-03-19T21:32:18.875Z,6.40
2018-03-19T21:34:46.360Z,5.77
2018-03-19T21:37:13.843Z,6.50
2018-03-19T21:39:41.359Z,6.07
2018-03-19T21:42:08.835Z,5.83
2018-03-19T21:44:36.331Z,6.00
2018-03-19T21:47:03.800Z,6.43
2018-03-19T21:49:31.313Z,5.63
2018-03-19T21:51:58.799Z,5.80
2018-03-19T21:54:26.264Z,5.30
2018-03-19T21:56:53.763Z,5.57
2018-03-19T21:59:21.504Z,5.20
2018-03-19T22:01:49.526Z,5.40
2018-03-19T22:04:16.999Z,5.93
2018-03-19T22:06:44.488Z,6.10
2018-03-19T22:09:11.956Z,6.17
2018-03-19T22:11:39.507Z,5.63
2018-03-19T22:14:06.988Z,5.97
2018-03-19T22:16:34.477Z,6.30
2018-03-19T22:19:02.180Z,5.70
2018-03-19T22:21:29.685Z,5.30
2018-03-19T22:23:57.163Z,5.30
2018-03-19T22:26:24.675Z,6.20
2018-03-19T22:28:52.179Z,6.37
2018-03-19T22:31:19.644Z,6.23
2018-03-19T22:33:47.138Z,5.90
2018-03-19T22:36:14.600Z,5.50
2018-03-19T22:38:42.096Z,5.47
2018-03-19T22:41:09.564Z,5.80
2018-03-19T22:43:37.058Z,5.53
2018-03-19T22:46:04.535Z,5.60
2018-03-19T22:48:32.036Z,5.13
2018-03-19T22:50:59.503Z,6.07
2018-03-19T22:53:26.999Z,5.97
2018-03-19T22:55:54.465Z,5.70
2018-03-19T22:58:21.956Z,5.43
2018-03-19T23:00:49.418Z,6.00
2018-03-19T23:03:16.935Z,5.47
2018-03-19T23:05:44.399Z,5.13
2018-03-19T23:08:11.861Z,5.80
2018-03-19T23:10:39.353Z,5.80
2018-03-19T23:13:06.810Z,5.87
2018-03-19T23:15:34.303Z,5.43
2018-03-19T23:18:01.760Z,5.27
2018-03-19T23:20:29.353Z,5.40
2018-03-19T23:22:56.818Z,4.87
2018-03-19T23:25:24.308Z,5.77
2018-03-19T23:27:51.788Z,5.77
2018-03-19T23:30:19.327Z,5.87
2018-03-19T23:32:46.792Z,6.07
2018-03-19T23:35:14.288Z,5.47
2018-03-19T23:37:41.768Z,5.90
2018-03-19T23:40:09.281Z,6.03
2018-03-19T23:42:36.759Z,5.93
2018-03-19T23:45:04.280Z,5.67
2018-03-19T23:47:31.763Z,5.70
2018-03-19T23:49:59.223Z,5.67
2018-03-19T23:52:26.723Z,5.53
2018-03-19T23:54:54.198Z,6.13
2018-03-19T23:57:21.692Z,5.70
2018-03-19T23:59:49.149Z,5.90
